sensor_id;sensor_type;location;lat;lon;timestamp;pressure;altitude;pressure_sealevel;temperature;humidity
64616;BME280;51027;42.162;24.754;2023-09-08T00:00:49;100123.69;;;22.01;100.00
64616;BME280;51027;42.162;24.754;2023-09-08T00:03:15;100136.72;;;21.94;100.00
64616;BME280;51027;42.162;24.754;2023-09-08T00:05:41;100138.41;;;21.84;100.00
64616;BME280;51027;42.162;24.754;2023-09-08T00:08:07;100135.25;;;21.79;100.00
64616;BME280;51027;42.162;24.754;2023-09-08T00:10:32;100133.56;;;21.78;100.00
64616;BME280;51027;42.162;24.754;2023-09-08T00:12:58;100134.88;;;21.72;100.00
64616;BME280;51027;42.162;24.754;2023-09-08T00:15:23;100138.78;;;21.68;100.00
64616;BME280;51027;42.162;24.754;2023-09-08T00:17:48;100135.72;;;21.73;100.00
64616;BME280;51027;42.162;24.754;2023-09-08T00:20:14;100136.59;;;21.73;100.00
64616;BME280;51027;42.162;24.754;2023-09-08T00:22:40;100128.25;;;21.54;100.00
64616;BME280;51027;42.162;24.754;2023-09-08T00:25:06;100137.91;;;21.56;100.00
64616;BME280;51027;42.162;24.754;2023-09-08T00:27:31;100133.16;;;21.60;100.00
64616;BME280;51027;42.162;24.754;2023-09-08T00:29:57;100135.84;;;21.60;100.00
64616;BME280;51027;42.162;24.754;2023-09-08T00:32:23;100122.75;;;21.44;100.00
64616;BME280;51027;42.162;24.754;2023-09-08T00:34:48;100133.03;;;21.62;100.00
64616;BME280;51027;42.162;24.754;2023-09-08T00:37:14;100140.69;;;21.55;100.00
64616;BME280;51027;42.162;24.754;2023-09-08T00:39:39;100137.16;;;21.54;100.00
64616;BME280;51027;42.162;24.754;2023-09-08T00:42:05;100134.72;;;21.51;100.00
64616;BME280;51027;42.162;24.754;2023-09-08T00:44:32;100132.06;;;21.51;100.00
64616;BME280;51027;42.162;24.754;2023-09-08T00:46:57;100121.78;;;21.45;100.00
64616;BME280;51027;42.162;24.754;2023-09-08T00:49:23;100131.78;;;21.43;100.00
64616;BME280;51027;42.162;24.754;2023-09-08T00:51:48;100129.94;;;21.44;100.00
64616;BME280;51027;42.162;24.754;2023-09-08T00:54:14;100139.94;;;21.42;100.00
64616;BME280;51027;42.162;24.754;2023-09-08T00:56:40;100139.38;;;21.49;100.00
64616;BME280;51027;42.162;24.754;2023-09-08T00:59:05;100132.91;;;21.52;100.00
64616;BME280;51027;42.162;24.754;2023-09-08T01:01:32;100126.91;;;21.37;100.00
64616;BME280;51027;42.162;24.754;2023-09-08T01:04:00;100123.63;;;21.45;100.00
64616;BME280;51027;42.162;24.754;2023-09-08T01:06:26;100123.53;;;21.46;100.00
64616;BME280;51027;42.162;24.754;2023-09-08T01:08:53;100120.19;;;21.32;100.00
64616;BME280;51027;42.162;24.754;2023-09-08T01:11:19;100116.06;;;21.39;100.00
64616;BME280;51027;42.162;24.754;2023-09-08T01:13:45;100119.94;;;21.35;100.00
64616;BME280;51027;42.162;24.754;2023-09-08T01:16:10;100113.53;;;21.24;100.00
64616;BME280;51027;42.162;24.754;2023-09-08T01:18:36;100112.69;;;21.24;100.00
64616;BME280;51027;42.162;24.754;2023-09-08T01:22:02;100088.06;;;21.08;100.00
64616;BME280;51027;42.162;24.754;2023-09-08T01:27:29;100099.84;;;21.29;100.00
64616;BME280;51027;42.162;24.754;2023-09-08T01:29:56;100103.19;;;21.20;100.00
64616;BME280;51027;42.162;24.754;2023-09-08T01:32:22;100106.97;;;21.17;100.00
64616;BME280;51027;42.162;24.754;2023-09-08T01:34:48;100093.56;;;21.06;100.00
64616;BME280;51027;42.162;24.754;2023-09-08T01:37:13;100105.34;;;21.15;100.00
64616;BME280;51027;42.162;24.754;2023-09-08T01:39:39;100108.13;;;21.02;100.00
64616;BME280;51027;42.162;24.754;2023-09-08T01:42:04;100108.69;;;20.94;100.00
64616;BME280;51027;42.162;24.754;2023-09-08T01:44:30;100102.41;;;20.95;100.00
64616;BME280;51027;42.162;24.754;2023-09-08T01:46:55;100099.72;;;20.95;100.00
64616;BME280;51027;42.162;24.754;2023-09-08T01:49:23;100085.78;;;20.79;100.00
64616;BME280;51027;42.162;24.754;2023-09-08T01:51:48;100098.34;;;20.90;100.00
64616;BME280;51027;42.162;24.754;2023-09-08T01:54:14;100109.91;;;20.90;100.00
64616;BME280;51027;42.162;24.754;2023-09-08T01:56:39;100091.13;;;20.79;100.00
64616;BME280;51027;42.162;24.754;2023-09-08T01:59:04;100107.97;;;20.92;100.00
64616;BME280;51027;42.162;24.754;2023-09-08T02:01:30;100110.03;;;20.89;100.00
64616;BME280;51027;42.162;24.754;2023-09-08T02:03:55;100100.88;;;20.80;100.00
64616;BME280;51027;42.162;24.754;2023-09-08T02:06:21;100112.19;;;20.84;100.00
64616;BME280;51027;42.162;24.754;2023-09-08T02:08:46;100107.72;;;20.84;100.00
64616;BME280;51027;42.162;24.754;2023-09-08T02:11:11;100096.47;;;20.79;100.00
64616;BME280;51027;42.162;24.754;2023-09-08T02:13:37;100110.66;;;20.92;100.00
64616;BME280;51027;42.162;24.754;2023-09-08T02:16:02;100110.16;;;20.87;100.00
64616;BME280;51027;42.162;24.754;2023-09-08T02:18:27;100101.63;;;20.93;100.00
64616;BME280;51027;42.162;24.754;2023-09-08T02:20:53;100072.97;;;20.71;100.00
64616;BME280;51027;42.162;24.754;2023-09-08T02:23:19;100102.34;;;20.84;100.00
64616;BME280;51027;42.162;24.754;2023-09-08T02:25:44;100099.41;;;20.76;100.00
64616;BME280;51027;42.162;24.754;2023-09-08T02:28:09;100100.38;;;20.75;100.00
64616;BME280;51027;42.162;24.754;2023-09-08T02:30:35;100100.13;;;20.78;100.00
64616;BME280;51027;42.162;24.754;2023-09-08T02:33:00;100100.38;;;20.75;100.00
64616;BME280;51027;42.162;24.754;2023-09-08T02:35:28;100098.44;;;20.77;100.00
64616;BME280;51027;42.162;24.754;2023-09-08T02:37:53;100099.16;;;20.79;100.00
64616;BME280;51027;42.162;24.754;2023-09-08T02:40:18;100094.03;;;20.76;100.00
64616;BME280;51027;42.162;24.754;2023-09-08T02:42:45;100087.56;;;20.67;100.00
64616;BME280;51027;42.162;24.754;2023-09-08T02:45:11;100090.34;;;20.66;100.00
64616;BME280;51027;42.162;24.754;2023-09-08T02:47:36;100084.34;;;20.62;100.00
64616;BME280;51027;42.162;24.754;2023-09-08T02:50:02;100094.00;;;20.65;100.00
64616;BME280;51027;42.162;24.754;2023-09-08T02:52:30;100086.75;;;20.54;100.00
64616;BME280;51027;42.162;24.754;2023-09-08T02:54:55;100084.53;;;20.48;100.00
64616;BME280;51027;42.162;24.754;2023-09-08T02:57:21;100077.47;;;20.47;100.00
64616;BME280;51027;42.162;24.754;2023-09-08T02:59:50;100078.66;;;20.43;100.00
64616;BME280;51027;42.162;24.754;2023-09-08T03:02:21;100086.00;;;20.52;100.00
64616;BME280;51027;42.162;24.754;2023-09-08T03:04:46;100082.09;;;20.45;100.00
64616;BME280;51027;42.162;24.754;2023-09-08T03:07:12;100082.22;;;20.44;100.00
64616;BME280;51027;42.162;24.754;2023-09-08T03:09:37;100105.41;;;20.43;100.00
64616;BME280;51027;42.162;24.754;2023-09-08T03:12:03;100099.41;;;20.39;100.00
64616;BME280;51027;42.162;24.754;2023-09-08T03:14:28;100091.75;;;20.22;100.00
64616;BME280;51027;42.162;24.754;2023-09-08T03:16:54;100092.28;;;20.27;100.00
64616;BME280;51027;42.162;24.754;2023-09-08T03:19:19;100101.66;;;20.33;100.00
64616;BME280;51027;42.162;24.754;2023-09-08T03:21:48;100104.56;;;20.42;100.00
64616;BME280;51027;42.162;24.754;2023-09-08T03:24:13;100106.56;;;20.39;100.00
64616;BME280;51027;42.162;24.754;2023-09-08T03:26:39;100102.97;;;20.27;100.00
64616;BME280;51027;42.162;24.754;2023-09-08T03:29:06;100075.13;;;20.06;100.00
64616;BME280;51027;42.162;24.754;2023-09-08T03:31:31;100098.47;;;20.28;100.00
64616;BME280;51027;42.162;24.754;2023-09-08T03:33:57;100104.06;;;20.12;100.00
64616;BME280;51027;42.162;24.754;2023-09-08T03:36:22;100099.28;;;20.17;100.00
64616;BME280;51027;42.162;24.754;2023-09-08T03:38:48;100097.31;;;20.19;100.00
64616;BME280;51027;42.162;24.754;2023-09-08T03:41:14;100106.50;;;20.28;100.00
64616;BME280;51027;42.162;24.754;2023-09-08T03:43:39;100106.56;;;20.15;100.00
64616;BME280;51027;42.162;24.754;2023-09-08T03:46:05;100109.41;;;20.25;100.00
64616;BME280;51027;42.162;24.754;2023-09-08T03:48:30;100106.56;;;20.15;100.00
64616;BME280;51027;42.162;24.754;2023-09-08T03:50:56;100104.06;;;20.25;100.00
64616;BME280;51027;42.162;24.754;2023-09-08T03:53:21;100099.09;;;20.31;100.00
64616;BME280;51027;42.162;24.754;2023-09-08T03:55:47;100089.59;;;20.27;100.00
64616;BME280;51027;42.162;24.754;2023-09-08T03:58:12;100100.19;;;20.29;100.00
64616;BME280;51027;42.162;24.754;2023-09-08T04:00:37;100106.50;;;20.28;100.00
64616;BME280;51027;42.162;24.754;2023-09-08T04:03:03;100109.81;;;20.31;100.00
64616;BME280;51027;42.162;24.754;2023-09-08T04:05:29;100108.84;;;20.32;100.00
64616;BME280;51027;42.162;24.754;2023-09-08T04:07:54;100104.47;;;20.31;100.00
64616;BME280;51027;42.162;24.754;2023-09-08T04:10:20;100115.38;;;20.28;100.00
64616;BME280;51027;42.162;24.754;2023-09-08T04:12:45;100120.31;;;20.34;100.00
64616;BME280;51027;42.162;24.754;2023-09-08T04:15:11;100122.56;;;20.28;100.00
64616;BME280;51027;42.162;24.754;2023-09-08T04:17:37;100103.34;;;20.10;100.00
64616;BME280;51027;42.162;24.754;2023-09-08T04:20:04;100111.25;;;20.24;100.00
64616;BME280;51027;42.162;24.754;2023-09-08T04:22:33;100115.38;;;20.28;100.00
64616;BME280;51027;42.162;24.754;2023-09-08T04:24:59;100124.50;;;20.26;100.00
64616;BME280;51027;42.162;24.754;2023-09-08T04:27:25;100114.13;;;20.21;100.00
64616;BME280;51027;42.162;24.754;2023-09-08T04:29:50;100110.44;;;19.98;100.00
64616;BME280;51027;42.162;24.754;2023-09-08T04:32:16;100122.38;;;20.18;100.00
64616;BME280;51027;42.162;24.754;2023-09-08T04:34:42;100127.41;;;20.10;100.00
64616;BME280;51027;42.162;24.754;2023-09-08T04:37:08;100127.50;;;20.21;100.00
64616;BME280;51027;42.162;24.754;2023-09-08T04:39:34;100134.16;;;20.16;100.00
64616;BME280;51027;42.162;24.754;2023-09-08T04:42:00;100144.19;;;20.25;100.00
64616;BME280;51027;42.162;24.754;2023-09-08T04:44:25;100144.59;;;20.31;100.00
64616;BME280;51027;42.162;24.754;2023-09-08T04:46:52;100145.78;;;20.27;100.00
64616;BME280;51027;42.162;24.754;2023-09-08T04:49:17;100141.16;;;20.29;100.00
64616;BME280;51027;42.162;24.754;2023-09-08T04:51:43;100146.69;;;20.52;100.00
64616;BME280;51027;42.162;24.754;2023-09-08T04:54:09;100151.44;;;20.48;100.00
64616;BME280;51027;42.162;24.754;2023-09-08T04:56:34;100151.09;;;20.40;100.00
64616;BME280;51027;42.162;24.754;2023-09-08T04:59:00;100147.47;;;20.54;100.00
64616;BME280;51027;42.162;24.754;2023-09-08T05:01:27;100145.00;;;20.51;100.00
64616;BME280;51027;42.162;24.754;2023-09-08T05:03:52;100133.00;;;20.56;100.00
64616;BME280;51027;42.162;24.754;2023-09-08T05:06:18;100139.75;;;20.73;100.00
64616;BME280;51027;42.162;24.754;2023-09-08T05:08:43;100138.63;;;20.88;100.00
64616;BME280;51027;42.162;24.754;2023-09-08T05:11:09;100138.06;;;20.96;100.00
64616;BME280;51027;42.162;24.754;2023-09-08T05:13:35;100152.31;;;20.96;100.00
64616;BME280;51027;42.162;24.754;2023-09-08T05:16:00;100134.47;;;21.08;100.00
64616;BME280;51027;42.162;24.754;2023-09-08T05:18:36;100151.84;;;21.03;100.00
64616;BME280;51027;42.162;24.754;2023-09-08T05:21:02;100148.31;;;21.26;100.00
64616;BME280;51027;42.162;24.754;2023-09-08T05:23:27;100149.94;;;21.40;100.00
64616;BME280;51027;42.162;24.754;2023-09-08T05:25:54;100152.59;;;21.28;100.00
64616;BME280;51027;42.162;24.754;2023-09-08T05:28:20;100158.22;;;20.89;100.00
64616;BME280;51027;42.162;24.754;2023-09-08T05:30:45;100161.78;;;21.24;100.00
64616;BME280;51027;42.162;24.754;2023-09-08T05:33:11;100144.47;;;20.93;100.00
64616;BME280;51027;42.162;24.754;2023-09-08T05:35:36;100154.19;;;21.07;100.00
64616;BME280;51027;42.162;24.754;2023-09-08T05:38:02;100149.31;;;21.12;100.00
64616;BME280;51027;42.162;24.754;2023-09-08T05:40:27;100154.16;;;21.31;100.00
64616;BME280;51027;42.162;24.754;2023-09-08T05:42:53;100162.50;;;21.50;100.00
64616;BME280;51027;42.162;24.754;2023-09-08T05:45:18;100163.78;;;21.34;100.00
64616;BME280;51027;42.162;24.754;2023-09-08T05:47:45;100178.22;;;21.20;100.00
64616;BME280;51027;42.162;24.754;2023-09-08T05:50:10;100170.97;;;21.09;100.00
64616;BME280;51027;42.162;24.754;2023-09-08T05:52:36;100172.19;;;21.05;100.00
64616;BME280;51027;42.162;24.754;2023-09-08T05:55:02;100170.53;;;21.15;100.00
64616;BME280;51027;42.162;24.754;2023-09-08T05:57:27;100187.25;;;20.95;100.00
64616;BME280;51027;42.162;24.754;2023-09-08T05:59:52;100175.78;;;21.17;100.00
64616;BME280;51027;42.162;24.754;2023-09-08T06:02:18;100177.69;;;21.27;100.00
64616;BME280;51027;42.162;24.754;2023-09-08T06:04:43;100181.66;;;21.57;100.00
64616;BME280;51027;42.162;24.754;2023-09-08T06:07:09;100160.13;;;21.70;100.00
64616;BME280;51027;42.162;24.754;2023-09-08T06:09:34;100181.13;;;21.87;100.00
64616;BME280;51027;42.162;24.754;2023-09-08T06:12:00;100173.53;;;21.92;100.00
64616;BME280;51027;42.162;24.754;2023-09-08T06:14:25;100177.84;;;22.17;100.00
64616;BME280;51027;42.162;24.754;2023-09-08T06:16:51;100188.47;;;22.30;100.00
64616;BME280;51027;42.162;24.754;2023-09-08T06:19:16;100180.63;;;22.27;100.00
64616;BME280;51027;42.162;24.754;2023-09-08T06:21:42;100186.88;;;22.38;100.00
64616;BME280;51027;42.162;24.754;2023-09-08T06:24:07;100186.09;;;22.03;100.00
64616;BME280;51027;42.162;24.754;2023-09-08T06:26:33;100186.50;;;22.43;100.00
64616;BME280;51027;42.162;24.754;2023-09-08T06:28:58;100200.78;;;22.43;99.68
64616;BME280;51027;42.162;24.754;2023-09-08T06:31:23;100181.25;;;22.53;99.54
64616;BME280;51027;42.162;24.754;2023-09-08T06:33:49;100190.66;;;22.25;100.00
64616;BME280;51027;42.162;24.754;2023-09-08T06:36:18;100199.22;;;22.30;100.00
64616;BME280;51027;42.162;24.754;2023-09-08T06:38:43;100204.41;;;22.65;96.42
64616;BME280;51027;42.162;24.754;2023-09-08T06:41:12;100209.94;;;22.41;93.87
64616;BME280;51027;42.162;24.754;2023-09-08T06:43:38;100214.06;;;22.45;96.36
64616;BME280;51027;42.162;24.754;2023-09-08T06:46:03;100210.63;;;22.65;94.60
64616;BME280;51027;42.162;24.754;2023-09-08T06:48:29;100211.13;;;22.70;93.38
64616;BME280;51027;42.162;24.754;2023-09-08T06:50:55;100213.78;;;22.82;93.72
64616;BME280;51027;42.162;24.754;2023-09-08T06:53:22;100212.19;;;23.02;93.77
64616;BME280;51027;42.162;24.754;2023-09-08T06:55:47;100211.00;;;22.61;93.05
64616;BME280;51027;42.162;24.754;2023-09-08T06:58:13;100209.66;;;22.66;94.02
64616;BME280;51027;42.162;24.754;2023-09-08T07:00:40;100211.25;;;22.69;92.95
64616;BME280;51027;42.162;24.754;2023-09-08T07:03:06;100210.13;;;22.71;93.87
64616;BME280;51027;42.162;24.754;2023-09-08T07:05:31;100217.47;;;22.69;92.59
64616;BME280;51027;42.162;24.754;2023-09-08T07:07:57;100214.25;;;23.09;91.82
64616;BME280;51027;42.162;24.754;2023-09-08T07:10:22;100218.66;;;22.99;92.86
64616;BME280;51027;42.162;24.754;2023-09-08T07:12:48;100222.06;;;23.01;93.42
64616;BME280;51027;42.162;24.754;2023-09-08T07:15:14;100216.25;;;23.49;90.17
64616;BME280;51027;42.162;24.754;2023-09-08T07:17:39;100218.31;;;23.24;89.46
64616;BME280;51027;42.162;24.754;2023-09-08T07:20:05;100212.56;;;23.50;87.94
64616;BME280;51027;42.162;24.754;2023-09-08T07:22:31;100211.63;;;23.51;86.14
64616;BME280;51027;42.162;24.754;2023-09-08T07:24:56;100214.75;;;23.56;86.26
64616;BME280;51027;42.162;24.754;2023-09-08T07:27:21;100217.28;;;23.69;85.90
64616;BME280;51027;42.162;24.754;2023-09-08T07:29:47;100213.38;;;23.41;86.83
64616;BME280;51027;42.162;24.754;2023-09-08T07:32:15;100217.13;;;23.70;84.92
64616;BME280;51027;42.162;24.754;2023-09-08T07:34:41;100211.31;;;23.86;82.81
64616;BME280;51027;42.162;24.754;2023-09-08T07:37:06;100207.81;;;23.95;84.43
64616;BME280;51027;42.162;24.754;2023-09-08T07:39:32;100206.31;;;24.02;83.43
64616;BME280;51027;42.162;24.754;2023-09-08T07:41:58;100200.66;;;24.05;84.37
64616;BME280;51027;42.162;24.754;2023-09-08T07:44:24;100205.94;;;24.37;83.00
64616;BME280;51027;42.162;24.754;2023-09-08T07:46:49;100193.22;;;24.49;80.30
64616;BME280;51027;42.162;24.754;2023-09-08T07:49:17;100201.75;;;24.54;79.66
64616;BME280;51027;42.162;24.754;2023-09-08T07:51:44;100202.84;;;24.42;77.79
64616;BME280;51027;42.162;24.754;2023-09-08T07:54:10;100184.53;;;24.36;77.37
64616;BME280;51027;42.162;24.754;2023-09-08T07:56:35;100185.81;;;25.01;75.39
64616;BME280;51027;42.162;24.754;2023-09-08T07:59:01;100188.66;;;24.99;73.08
64616;BME280;51027;42.162;24.754;2023-09-08T08:01:27;100195.88;;;24.89;70.70
64616;BME280;51027;42.162;24.754;2023-09-08T08:03:52;100187.41;;;25.23;67.96
64616;BME280;51027;42.162;24.754;2023-09-08T08:06:17;100182.16;;;25.70;67.54
64616;BME280;51027;42.162;24.754;2023-09-08T08:08:43;100188.16;;;26.10;67.18
64616;BME280;51027;42.162;24.754;2023-09-08T08:11:13;100187.56;;;26.17;63.54
64616;BME280;51027;42.162;24.754;2023-09-08T08:13:39;100183.63;;;26.48;60.34
64616;BME280;51027;42.162;24.754;2023-09-08T08:16:05;100174.56;;;25.93;57.50
64616;BME280;51027;42.162;24.754;2023-09-08T08:18:30;100179.44;;;26.26;58.14
64616;BME280;51027;42.162;24.754;2023-09-08T08:20:56;100186.53;;;26.55;58.42
64616;BME280;51027;42.162;24.754;2023-09-08T08:23:21;100170.63;;;26.79;57.40
64616;BME280;51027;42.162;24.754;2023-09-08T08:25:48;100169.13;;;27.12;58.46
64616;BME280;51027;42.162;24.754;2023-09-08T08:28:14;100176.31;;;26.58;58.48
64616;BME280;51027;42.162;24.754;2023-09-08T08:30:39;100182.41;;;26.23;56.48
64616;BME280;51027;42.162;24.754;2023-09-08T08:33:05;100178.22;;;26.01;56.06
64616;BME280;51027;42.162;24.754;2023-09-08T08:35:30;100166.75;;;25.90;56.45
64616;BME280;51027;42.162;24.754;2023-09-08T08:37:58;100161.75;;;25.95;57.68
64616;BME280;51027;42.162;24.754;2023-09-08T08:40:25;100168.91;;;25.86;57.81
64616;BME280;51027;42.162;24.754;2023-09-08T08:42:55;100168.75;;;25.88;57.93
64616;BME280;51027;42.162;24.754;2023-09-08T08:45:25;100166.81;;;25.70;57.12
64616;BME280;51027;42.162;24.754;2023-09-08T08:47:51;100168.47;;;25.81;56.46
64616;BME280;51027;42.162;24.754;2023-09-08T08:50:17;100164.50;;;25.85;55.29
64616;BME280;51027;42.162;24.754;2023-09-08T08:52:43;100161.41;;;26.17;53.94
64616;BME280;51027;42.162;24.754;2023-09-08T08:55:09;100154.50;;;26.87;53.85
64616;BME280;51027;42.162;24.754;2023-09-08T08:57:37;100167.19;;;26.22;54.10
64616;BME280;51027;42.162;24.754;2023-09-08T09:00:06;100149.09;;;26.42;53.55
64616;BME280;51027;42.162;24.754;2023-09-08T09:02:36;100162.06;;;27.02;53.82
64616;BME280;51027;42.162;24.754;2023-09-08T09:05:02;100170.28;;;27.10;50.78
64616;BME280;51027;42.162;24.754;2023-09-08T09:07:28;100148.94;;;27.07;51.92
64616;BME280;51027;42.162;24.754;2023-09-08T09:09:54;100156.28;;;27.32;51.17
64616;BME280;51027;42.162;24.754;2023-09-08T09:12:20;100158.25;;;27.48;50.27
64616;BME280;51027;42.162;24.754;2023-09-08T09:14:47;100151.69;;;26.97;50.01
64616;BME280;51027;42.162;24.754;2023-09-08T09:17:14;100147.16;;;27.15;51.00
64616;BME280;51027;42.162;24.754;2023-09-08T09:19:40;100138.69;;;27.10;49.16
64616;BME280;51027;42.162;24.754;2023-09-08T09:22:05;100152.31;;;27.44;50.20
64616;BME280;51027;42.162;24.754;2023-09-08T09:24:36;100155.38;;;27.23;48.23
64616;BME280;51027;42.162;24.754;2023-09-08T09:27:04;100138.19;;;27.33;47.24
64616;BME280;51027;42.162;24.754;2023-09-08T09:29:31;100151.13;;;27.65;47.43
64616;BME280;51027;42.162;24.754;2023-09-08T09:32:02;100144.28;;;27.78;47.47
64616;BME280;51027;42.162;24.754;2023-09-08T09:34:28;100146.88;;;27.62;47.00
64616;BME280;51027;42.162;24.754;2023-09-08T09:36:53;100131.63;;;27.17;47.84
64616;BME280;51027;42.162;24.754;2023-09-08T09:39:23;100133.91;;;27.66;46.87
64616;BME280;51027;42.162;24.754;2023-09-08T09:41:53;100123.75;;;27.94;47.37
64616;BME280;51027;42.162;24.754;2023-09-08T09:44:19;100128.03;;;27.70;47.10
64616;BME280;51027;42.162;24.754;2023-09-08T09:46:46;100124.88;;;27.83;46.69
64616;BME280;51027;42.162;24.754;2023-09-08T09:49:13;100124.09;;;27.99;45.38
64616;BME280;51027;42.162;24.754;2023-09-08T09:51:49;100125.66;;;28.01;45.92
64616;BME280;51027;42.162;24.754;2023-09-08T09:54:18;100129.78;;;28.13;45.14
64616;BME280;51027;42.162;24.754;2023-09-08T09:56:44;100123.47;;;28.31;44.66
64616;BME280;51027;42.162;24.754;2023-09-08T09:59:11;100128.84;;;27.97;44.04
64616;BME280;51027;42.162;24.754;2023-09-08T10:01:41;100121.03;;;27.94;44.11
64616;BME280;51027;42.162;24.754;2023-09-08T10:04:07;100117.31;;;28.29;44.04
64616;BME280;51027;42.162;24.754;2023-09-08T10:06:35;100115.38;;;28.13;43.94
64616;BME280;51027;42.162;24.754;2023-09-08T10:09:01;100113.59;;;28.30;44.76
64616;BME280;51027;42.162;24.754;2023-09-08T10:11:34;100086.38;;;28.31;43.60
64616;BME280;51027;42.162;24.754;2023-09-08T10:14:00;100092.84;;;28.47;43.86
64616;BME280;51027;42.162;24.754;2023-09-08T10:16:27;100092.53;;;28.58;44.28
64616;BME280;51027;42.162;24.754;2023-09-08T10:18:54;100083.88;;;28.54;43.13
64616;BME280;51027;42.162;24.754;2023-09-08T10:21:23;100089.94;;;28.40;43.57
64616;BME280;51027;42.162;24.754;2023-09-08T10:23:54;100077.28;;;28.57;43.60
64616;BME280;51027;42.162;24.754;2023-09-08T10:26:26;100081.69;;;28.58;43.51
64616;BME280;51027;42.162;24.754;2023-09-08T10:28:54;100080.72;;;28.83;43.00
64616;BME280;51027;42.162;24.754;2023-09-08T10:31:23;100072.56;;;28.75;43.08
64616;BME280;51027;42.162;24.754;2023-09-08T10:33:50;100073.34;;;28.35;43.23
64616;BME280;51027;42.162;24.754;2023-09-08T10:36:16;100075.94;;;28.10;42.95
64616;BME280;51027;42.162;24.754;2023-09-08T10:38:41;100060.66;;;28.44;43.30
64616;BME280;51027;42.162;24.754;2023-09-08T10:43:56;100067.75;;;28.36;42.85
64616;BME280;51027;42.162;24.754;2023-09-08T10:46:23;100061.00;;;28.57;43.00
64616;BME280;51027;42.162;24.754;2023-09-08T10:48:49;100059.88;;;29.00;42.30
64616;BME280;51027;42.162;24.754;2023-09-08T10:51:15;100053.75;;;28.74;41.64
64616;BME280;51027;42.162;24.754;2023-09-08T10:53:41;100050.41;;;28.21;43.11
64616;BME280;51027;42.162;24.754;2023-09-08T10:56:06;100064.56;;;28.41;43.45
64616;BME280;51027;42.162;24.754;2023-09-08T10:58:33;100060.50;;;28.69;42.32
64616;BME280;51027;42.162;24.754;2023-09-08T11:01:01;100056.44;;;28.57;41.55
64616;BME280;51027;42.162;24.754;2023-09-08T11:03:48;100037.66;;;28.64;42.32
64616;BME280;51027;42.162;24.754;2023-09-08T11:06:18;100036.25;;;28.44;41.47
64616;BME280;51027;42.162;24.754;2023-09-08T11:08:45;100043.06;;;28.64;42.85
64616;BME280;51027;42.162;24.754;2023-09-08T11:11:12;100029.84;;;28.77;42.39
64616;BME280;51027;42.162;24.754;2023-09-08T11:13:38;100028.31;;;28.66;41.75
64616;BME280;51027;42.162;24.754;2023-09-08T11:16:05;100022.41;;;28.63;42.20
64616;BME280;51027;42.162;24.754;2023-09-08T11:18:32;100023.41;;;28.86;42.47
64616;BME280;51027;42.162;24.754;2023-09-08T11:21:02;100025.47;;;29.01;40.48
64616;BME280;51027;42.162;24.754;2023-09-08T11:23:28;100010.56;;;28.96;41.65
64616;BME280;51027;42.162;24.754;2023-09-08T11:25:54;100009.84;;;28.78;41.56
64616;BME280;51027;42.162;24.754;2023-09-08T11:28:23;100011.75;;;28.61;41.81
64616;BME280;51027;42.162;24.754;2023-09-08T11:30:50;100015.16;;;29.04;41.16
64616;BME280;51027;42.162;24.754;2023-09-08T11:33:16;100004.97;;;28.90;40.89
64616;BME280;51027;42.162;24.754;2023-09-08T11:35:42;100002.06;;;28.83;40.59
64616;BME280;51027;42.162;24.754;2023-09-08T11:38:10;100003.63;;;29.02;40.66
64616;BME280;51027;42.162;24.754;2023-09-08T11:40:36;99991.09;;;28.93;40.39
64616;BME280;51027;42.162;24.754;2023-09-08T11:43:03;99983.25;;;29.06;40.29
64616;BME280;51027;42.162;24.754;2023-09-08T11:45:29;99990.56;;;29.14;40.40
64616;BME280;51027;42.162;24.754;2023-09-08T11:47:55;99985.44;;;29.11;39.96
64616;BME280;51027;42.162;24.754;2023-09-08T11:50:21;99988.50;;;29.24;40.59
64616;BME280;51027;42.162;24.754;2023-09-08T11:52:53;99982.41;;;29.14;40.30
64616;BME280;51027;42.162;24.754;2023-09-08T11:55:20;99974.59;;;29.19;39.91
64616;BME280;51027;42.162;24.754;2023-09-08T11:57:54;99973.25;;;29.15;38.42
64616;BME280;51027;42.162;24.754;2023-09-08T12:00:23;99977.66;;;29.16;38.32
64616;BME280;51027;42.162;24.754;2023-09-08T12:02:49;99967.47;;;29.18;39.06
64616;BME280;51027;42.162;24.754;2023-09-08T12:05:25;99962.69;;;29.36;39.09
64616;BME280;51027;42.162;24.754;2023-09-08T12:07:52;99963.31;;;29.46;38.62
64616;BME280;51027;42.162;24.754;2023-09-08T12:10:18;99967.06;;;29.53;39.86
64616;BME280;51027;42.162;24.754;2023-09-08T12:12:46;99964.16;;;29.55;39.34
64616;BME280;51027;42.162;24.754;2023-09-08T12:15:12;99933.50;;;29.30;38.23
64616;BME280;51027;42.162;24.754;2023-09-08T12:17:49;99945.06;;;29.71;38.46
64616;BME280;51027;42.162;24.754;2023-09-08T12:20:15;99945.69;;;29.81;38.74
64616;BME280;51027;42.162;24.754;2023-09-08T12:22:48;99938.72;;;29.87;38.03
64616;BME280;51027;42.162;24.754;2023-09-08T12:25:15;99936.06;;;30.10;38.60
64616;BME280;51027;42.162;24.754;2023-09-08T12:27:42;99931.25;;;29.89;38.59
64616;BME280;51027;42.162;24.754;2023-09-08T12:30:08;99917.69;;;30.12;38.13
64616;BME280;51027;42.162;24.754;2023-09-08T12:32:35;99926.75;;;30.04;38.55
64616;BME280;51027;42.162;24.754;2023-09-08T12:35:03;99925.16;;;29.48;38.10
64616;BME280;51027;42.162;24.754;2023-09-08T12:37:29;99930.41;;;29.41;38.58